createdAt,value
2023-01-02T00:01:56.035Z,41.05
2023-01-02T00:05:13.219Z,41.33
2023-01-02T00:08:29.705Z,37.15
2023-01-02T00:11:46.101Z,44.55
2023-01-02T00:15:03.880Z,39.20
2023-01-02T00:18:20.381Z,42.20
2023-01-02T00:21:38.936Z,42.30
2023-01-02T00:24:55.132Z,38.58
2023-01-02T00:28:12.328Z,40.65
2023-01-02T00:31:29.321Z,41.63
2023-01-02T00:34:46.399Z,40.08
2023-01-02T00:38:04.436Z,41.53
2023-01-02T00:41:24.540Z,36.18
2023-01-02T00:44:40.999Z,38.30
2023-01-02T00:47:57.374Z,39.75
2023-01-02T00:51:15.510Z,43.68
2023-01-02T00:54:32.079Z,39.83
2023-01-02T00:57:49.831Z,39.60
2023-01-02T01:01:07.664Z,37.83
2023-01-02T01:04:24.082Z,39.30
2023-01-02T01:07:40.640Z,38.63
2023-01-02T01:10:57.494Z,37.53
2023-01-02T01:14:13.994Z,44.48
2023-01-02T01:17:30.830Z,42.13
2023-01-02T01:20:48.923Z,40.88
2023-01-02T01:24:05.756Z,41.98
2023-01-02T01:27:22.241Z,46.03
2023-01-02T01:30:38.886Z,39.65
2023-01-02T01:33:58.453Z,39.28
2023-01-02T01:37:15.842Z,39.20
2023-01-02T01:40:32.239Z,35.30
2023-01-02T01:43:52.454Z,40.28
2023-01-02T01:47:09.862Z,37.15
2023-01-02T01:50:30.634Z,40.30
2023-01-02T01:53:48.963Z,38.83
2023-01-02T01:57:09.583Z,42.00
2023-01-02T02:00:27.390Z,36.98
2023-01-02T02:03:46.392Z,37.90
2023-01-02T02:07:03.829Z,38.43
2023-01-02T02:10:21.401Z,38.90
2023-01-02T02:13:40.921Z,36.18
2023-01-02T02:17:02.921Z,37.90
2023-01-02T02:20:37.927Z,38.48
2023-01-02T02:24:19.153Z,36.58
2023-01-02T02:27:59.808Z,37.83
2023-01-02T02:31:20.883Z,38.18
2023-01-02T02:34:41.652Z,35.90
2023-01-02T02:38:02.786Z,40.28
2023-01-02T02:41:26.830Z,40.18
2023-01-02T02:44:50.035Z,36.98
2023-01-02T02:48:11.461Z,36.20
2023-01-02T02:51:33.364Z,38.78
2023-01-02T02:54:54.262Z,36.45
2023-01-02T02:58:11.008Z,34.38
2023-01-02T03:01:33.726Z,36.53
2023-01-02T03:04:51.622Z,34.78
2023-01-02T03:08:14.112Z,37.10
2023-01-02T03:11:35.050Z,37.85
2023-01-02T03:14:56.715Z,39.08
2023-01-02T03:18:22.833Z,38.30
2023-01-02T03:21:44.927Z,37.05
2023-01-02T03:25:03.710Z,39.58
2023-01-02T03:28:27.365Z,39.78
2023-01-02T03:31:47.538Z,36.95
2023-01-02T03:35:05.959Z,38.20
2023-01-02T03:38:26.817Z,33.53
2023-01-02T03:41:48.882Z,36.60
2023-01-02T03:45:10.430Z,37.20
2023-01-02T03:48:33.027Z,38.53
2023-01-02T03:51:49.407Z,34.35
2023-01-02T03:55:07.176Z,36.70
2023-01-02T03:58:28.507Z,35.55
2023-01-02T04:01:52.539Z,38.90
2023-01-02T04:05:13.261Z,41.08
2023-01-02T04:08:34.685Z,35.83
2023-01-02T04:11:56.601Z,35.63
2023-01-02T04:15:17.936Z,39.30
2023-01-02T04:18:44.589Z,38.25
2023-01-02T04:22:01.957Z,34.38
2023-01-02T04:25:23.364Z,34.60
2023-01-02T04:28:43.487Z,36.05
2023-01-02T04:32:04.502Z,37.53
2023-01-02T04:35:26.345Z,39.63
2023-01-02T04:38:42.963Z,40.00
2023-01-02T04:41:59.347Z,42.33
2023-01-02T04:45:18.894Z,35.50
2023-01-02T04:48:35.283Z,38.85
2023-01-02T04:51:51.580Z,39.25
2023-01-02T04:55:09.180Z,38.80
2023-01-02T04:58:27.701Z,40.10
2023-01-02T05:01:44.164Z,37.53
2023-01-02T05:05:01.708Z,41.93
2023-01-02T05:08:18.880Z,36.43
2023-01-02T05:11:35.460Z,39.80
2023-01-02T05:14:51.707Z,41.48
2023-01-02T05:18:08.200Z,40.73
2023-01-02T05:21:39.034Z,41.75
2023-01-02T05:24:55.538Z,37.95
2023-01-02T05:28:12.568Z,39.95
2023-01-02T05:31:29.458Z,43.05
2023-01-02T05:34:45.929Z,44.00
2023-01-02T05:38:03.523Z,44.35
2023-01-02T05:41:20.466Z,51.08
2023-01-02T05:44:36.961Z,58.30
2023-01-02T05:47:54.428Z,58.10
2023-01-02T05:51:14.656Z,54.88
2023-01-02T05:54:31.276Z,55.60
2023-01-02T05:57:47.650Z,59.08
2023-01-02T06:01:06.162Z,59.05
2023-01-02T06:04:36.219Z,55.90
2023-01-02T06:07:52.549Z,60.15
2023-01-02T06:11:09.849Z,62.05
2023-01-02T06:14:26.670Z,55.88
2023-01-02T06:17:43.743Z,53.45
2023-01-02T06:21:02.855Z,56.08
2023-01-02T06:24:20.446Z,60.95
2023-01-02T06:27:39.237Z,57.98
2023-01-02T06:30:55.667Z,55.50
2023-01-02T06:34:12.671Z,54.50
2023-01-02T06:37:29.073Z,56.53
2023-01-02T06:40:45.835Z,51.93
2023-01-02T06:44:02.590Z,62.85
2023-01-02T06:47:19.031Z,63.08
2023-01-02T06:50:35.457Z,63.70
2023-01-02T06:53:53.684Z,62.33
2023-01-02T06:57:10.452Z,57.70
2023-01-02T07:00:28.167Z,59.93
2023-01-02T07:03:45.424Z,59.08
2023-01-02T07:07:02.083Z,62.60
2023-01-02T07:10:19.131Z,53.90
2023-01-02T07:13:35.639Z,59.70
2023-01-02T07:16:52.170Z,57.68
2023-01-02T07:20:08.752Z,57.25
2023-01-02T07:23:25.747Z,57.75
2023-01-02T07:26:42.292Z,64.83
2023-01-02T07:29:59.157Z,65.68
2023-01-02T07:33:15.587Z,70.10
2023-01-02T07:36:32.555Z,68.80
2023-01-02T07:39:48.941Z,73.13
2023-01-02T07:43:05.353Z,70.43
2023-01-02T07:46:23.347Z,69.30
2023-01-02T07:52:53.928Z,63.65
2023-01-02T07:56:11.708Z,59.95
2023-01-02T07:59:28.101Z,67.83
2023-01-02T08:02:47.154Z,62.70
2023-01-02T08:06:09.318Z,64.10
2023-01-02T08:09:25.652Z,68.35
2023-01-02T08:12:41.966Z,66.65
2023-01-02T08:15:58.187Z,65.55
2023-01-02T08:19:17.316Z,66.83
2023-01-02T08:22:36.692Z,67.53
2023-01-02T08:25:57.444Z,71.48
2023-01-02T08:29:12.243Z,71.93
2023-01-02T08:32:29.233Z,67.05
2023-01-02T08:35:45.965Z,65.58
2023-01-02T08:39:02.395Z,61.03
2023-01-02T08:42:21.891Z,60.15
2023-01-02T08:45:38.376Z,60.60
2023-01-02T08:48:54.638Z,60.93
2023-01-02T08:52:14.341Z,83.70
2023-01-02T08:58:47.343Z,78.23
2023-01-02T09:02:08.807Z,90.00
2023-01-02T09:05:27.097Z,90.38
2023-01-02T09:08:43.836Z,86.75
2023-01-02T09:12:02.179Z,75.13
2023-01-02T09:15:23.463Z,83.48
2023-01-02T09:18:56.407Z,92.23
2023-01-02T09:22:18.968Z,78.85
2023-01-02T09:25:36.660Z,73.95
2023-01-02T09:28:56.199Z,74.90
2023-01-02T09:32:12.854Z,75.38
2023-01-02T09:35:42.038Z,65.87
2023-01-02T09:39:03.930Z,69.03
2023-01-02T09:42:23.850Z,65.83
2023-01-02T09:45:46.812Z,65.38
2023-01-02T09:49:03.366Z,64.88
2023-01-02T09:52:25.364Z,63.83
2023-01-02T09:55:48.845Z,60.03
2023-01-02T09:59:11.295Z,66.28
2023-01-02T10:02:38.839Z,61.18
2023-01-02T10:06:17.596Z,63.88
2023-01-02T10:09:39.571Z,58.55
2023-01-02T10:13:02.695Z,59.03
2023-01-02T10:16:26.272Z,103.63
2023-01-02T10:19:51.896Z,67.55
2023-01-02T10:23:12.674Z,54.58
2023-01-02T10:26:33.749Z,52.15
2023-01-02T10:29:56.834Z,49.25
2023-01-02T10:33:19.496Z,54.93
2023-01-02T10:36:39.123Z,52.00
2023-01-02T10:39:58.520Z,48.48
2023-01-02T10:43:15.599Z,48.55
2023-01-02T10:46:35.628Z,47.58
2023-01-02T10:49:53.252Z,46.85
2023-01-02T10:53:27.052Z,50.00
2023-01-02T10:56:46.156Z,44.80
2023-01-02T11:00:13.872Z,48.03
2023-01-02T11:03:33.683Z,47.35
2023-01-02T11:10:41.723Z,59.18
2023-01-02T11:14:00.475Z,54.43
2023-01-02T11:17:20.910Z,50.80
2023-01-02T11:20:44.047Z,49.83
2023-01-02T11:24:05.279Z,49.90
2023-01-02T11:27:22.413Z,50.00
2023-01-02T11:30:47.854Z,50.10
2023-01-02T11:34:14.679Z,47.95
2023-01-02T11:37:34.206Z,49.63
2023-01-02T11:41:04.473Z,50.43
2023-01-02T11:44:27.146Z,47.30
2023-01-02T11:47:48.650Z,51.68
2023-01-02T11:51:05.308Z,50.15
2023-01-02T11:54:28.185Z,48.93
2023-01-02T11:57:51.497Z,48.18
2023-01-02T12:01:13.908Z,48.80
2023-01-02T12:04:32.242Z,45.35
2023-01-02T12:07:56.293Z,52.78
2023-01-02T12:11:19.714Z,42.63
2023-01-02T12:14:50.757Z,43.33
2023-01-02T12:18:09.893Z,38.30
2023-01-02T12:21:31.059Z,43.55
2023-01-02T12:25:15.378Z,48.48
2023-01-02T12:29:13.425Z,48.50
2023-01-02T12:32:59.407Z,44.60
2023-01-02T12:36:40.301Z,45.48
2023-01-02T12:40:36.137Z,46.03
2023-01-02T12:44:16.895Z,47.90
2023-01-02T12:47:51.670Z,41.13
2023-01-02T12:51:23.771Z,43.80
2023-01-02T12:54:58.281Z,38.95
2023-01-02T12:58:19.735Z,39.75
2023-01-02T13:01:43.115Z,41.55
2023-01-02T13:05:03.453Z,46.15
2023-01-02T13:08:26.780Z,42.75
2023-01-02T13:11:48.031Z,43.08
2023-01-02T13:15:07.963Z,48.15
2023-01-02T13:18:31.526Z,48.45
2023-01-02T13:21:55.080Z,47.40
2023-01-02T13:25:20.804Z,57.60
2023-01-02T13:28:38.497Z,50.53
2023-01-02T13:32:01.708Z,54.13
2023-01-02T13:35:23.427Z,47.68
2023-01-02T13:38:43.573Z,43.53
2023-01-02T13:42:19.810Z,53.13
2023-01-02T13:45:41.577Z,42.00
2023-01-02T13:49:03.256Z,47.13
2023-01-02T13:52:27.305Z,47.05
2023-01-02T13:55:54.407Z,43.08
2023-01-02T13:59:41.916Z,48.55
2023-01-02T14:02:41.689Z,50.58
2023-01-02T14:06:13.722Z,47.35
2023-01-02T14:09:33.665Z,48.80
2023-01-02T14:12:57.078Z,53.60
2023-01-02T14:16:47.956Z,49.10
2023-01-02T14:20:31.695Z,64.40
2023-01-02T14:24:16.933Z,67.88
2023-01-02T14:27:20.942Z,59.63
2023-01-02T14:30:44.611Z,46.80
2023-01-02T14:34:05.563Z,49.55
2023-01-02T14:37:33.033Z,47.35
2023-01-02T14:40:51.483Z,45.13
2023-01-02T14:44:11.539Z,52.27
2023-01-02T14:47:33.127Z,51.83
2023-01-02T14:50:53.072Z,50.75
2023-01-02T14:54:17.597Z,46.20
2023-01-02T14:57:40.277Z,48.53
2023-01-02T15:01:04.204Z,46.50
2023-01-02T15:04:25.836Z,46.25
2023-01-02T15:07:47.987Z,45.73
2023-01-02T15:11:24.129Z,48.58
2023-01-02T15:14:41.111Z,50.10
2023-01-02T15:18:01.383Z,52.15
2023-01-02T15:21:24.445Z,52.08
2023-01-02T15:24:43.640Z,53.63
2023-01-02T15:28:09.075Z,50.03
2023-01-02T15:34:42.950Z,56.55
2023-01-02T15:38:01.905Z,51.83
2023-01-02T15:41:27.044Z,45.78
2023-01-02T15:44:59.853Z,44.25
2023-01-02T15:51:40.214Z,43.73
2023-01-02T15:54:55.776Z,48.05
2023-01-02T15:58:31.444Z,40.50
2023-01-02T16:01:53.624Z,35.03
2023-01-02T16:05:24.307Z,32.33
2023-01-02T16:08:41.393Z,36.18
2023-01-02T16:12:02.181Z,37.58
2023-01-02T16:15:22.312Z,42.58
2023-01-02T16:18:46.967Z,41.20
2023-01-02T16:22:10.355Z,37.98
2023-01-02T16:25:30.072Z,38.33
2023-01-02T16:28:49.064Z,39.45
2023-01-02T16:35:31.698Z,38.60
2023-01-02T16:39:03.261Z,44.90
2023-01-02T16:42:33.363Z,38.80
2023-01-02T16:45:50.924Z,38.63
2023-01-02T16:52:23.278Z,45.88
2023-01-02T16:55:39.564Z,40.50
2023-01-02T16:58:55.992Z,42.53
2023-01-02T17:02:12.287Z,42.40
2023-01-02T17:05:33.639Z,38.55
2023-01-02T17:08:50.469Z,39.83
2023-01-02T17:12:07.301Z,40.70
2023-01-02T17:15:26.939Z,37.60
2023-01-02T17:21:57.650Z,37.30
2023-01-02T17:25:25.819Z,38.10
2023-01-02T17:28:48.034Z,41.40
2023-01-02T17:32:05.596Z,37.85
2023-01-02T17:35:24.520Z,37.50
2023-01-02T17:38:41.740Z,47.40
2023-01-02T17:41:58.719Z,42.30
2023-01-02T17:45:18.214Z,39.75
2023-01-02T17:48:35.815Z,37.03
2023-01-02T17:51:53.089Z,38.33
2023-01-02T17:55:10.082Z,41.30
2023-01-02T17:58:28.954Z,39.35
2023-01-02T18:07:12.061Z,38.38
2023-01-02T18:10:32.896Z,38.93
2023-01-02T18:13:52.403Z,39.13
2023-01-02T18:20:28.423Z,41.30
2023-01-02T18:23:45.065Z,38.60
2023-01-02T18:27:05.701Z,42.23
2023-01-02T18:30:46.950Z,43.70
2023-01-02T18:34:10.323Z,43.23
2023-01-02T18:37:30.603Z,46.58
2023-01-02T18:40:47.648Z,51.05
2023-01-02T18:44:10.715Z,46.45
2023-01-02T18:47:38.020Z,46.73
2023-01-02T18:51:01.976Z,45.68
2023-01-02T18:54:27.785Z,47.50
2023-01-02T18:57:48.265Z,48.20
2023-01-02T19:01:04.523Z,50.45
2023-01-02T19:04:41.342Z,56.98
2023-01-02T19:07:58.625Z,53.35
2023-01-02T19:11:37.959Z,52.70
2023-01-02T19:18:24.085Z,61.73
2023-01-02T19:21:47.423Z,68.23
2023-01-02T19:25:14.859Z,79.20
2023-01-02T19:28:35.468Z,79.00
2023-01-02T19:32:26.610Z,90.63
2023-01-02T19:36:09.055Z,88.70
2023-01-02T19:39:58.744Z,88.80
2023-01-02T19:50:18.776Z,83.95
2023-01-02T19:53:57.489Z,86.58
2023-01-02T20:11:08.464Z,77.78
2023-01-02T20:18:32.827Z,74.48
2023-01-02T20:22:07.435Z,69.50
2023-01-02T20:25:26.879Z,67.28
2023-01-02T20:28:43.819Z,69.85
2023-01-02T20:32:00.782Z,63.58
2023-01-02T20:35:18.055Z,64.70
2023-01-02T20:38:38.188Z,66.45
2023-01-02T20:41:54.648Z,65.53
2023-01-02T20:45:12.083Z,68.68
2023-01-02T20:48:28.741Z,64.78
2023-01-02T20:51:45.570Z,62.75
2023-01-02T20:55:13.338Z,63.40
2023-01-02T20:58:35.638Z,58.50
2023-01-02T21:02:05.206Z,59.93
2023-01-02T21:05:22.545Z,59.85
2023-01-02T21:08:39.810Z,61.30
2023-01-02T21:12:07.547Z,63.55
2023-01-02T21:15:40.641Z,62.13
2023-01-02T21:19:22.297Z,64.93
2023-01-02T21:22:45.151Z,63.83
2023-01-02T21:26:01.933Z,61.63
2023-01-02T21:29:19.245Z,62.63
2023-01-02T21:32:41.104Z,64.93
2023-01-02T21:36:12.032Z,69.58
2023-01-02T21:39:28.668Z,61.80
2023-01-02T21:43:00.798Z,64.20
2023-01-02T21:46:15.765Z,66.50
2023-01-02T21:49:34.387Z,66.58
2023-01-02T21:52:51.484Z,66.95
2023-01-02T21:56:08.853Z,67.20
2023-01-02T21:59:28.567Z,61.90
2023-01-02T22:02:58.845Z,62.35
2023-01-02T22:06:16.236Z,65.65
2023-01-02T22:09:33.490Z,64.50
2023-01-02T22:12:53.140Z,64.83
2023-01-02T22:16:09.630Z,65.78
2023-01-02T22:19:27.215Z,64.40
2023-01-02T22:22:43.612Z,61.43
2023-01-02T22:26:00.369Z,66.20
2023-01-02T22:29:18.128Z,64.50
2023-01-02T22:32:36.803Z,79.78
2023-01-02T22:35:53.660Z,68.78
2023-01-02T22:39:28.773Z,63.85
2023-01-02T22:43:02.879Z,61.63
2023-01-02T22:46:22.632Z,59.30
2023-01-02T22:49:41.893Z,60.05
2023-01-02T22:52:58.979Z,57.83
2023-01-02T22:56:23.890Z,60.18
2023-01-02T22:59:40.127Z,56.38
2023-01-02T23:02:57.892Z,59.43
2023-01-02T23:06:20.063Z,57.38
2023-01-02T23:09:32.797Z,54.78
2023-01-02T23:12:49.320Z,57.63
2023-01-02T23:16:19.871Z,58.80
2023-01-02T23:19:36.878Z,52.23
2023-01-02T23:22:53.350Z,51.90
2023-01-02T23:26:10.639Z,51.83
2023-01-02T23:29:28.935Z,53.35
2023-01-02T23:32:46.001Z,47.53
2023-01-02T23:36:02.496Z,47.45
2023-01-02T23:39:21.282Z,50.30
2023-01-02T23:42:37.477Z,55.78
2023-01-02T23:45:53.876Z,49.50
2023-01-02T23:49:11.586Z,48.03
2023-01-02T23:52:28.041Z,51.03
2023-01-02T23:55:47.329Z,48.83
2023-01-02T23:59:06.945Z,49.30
